sensor_id;sensor_type;location;lat;lon;timestamp;temperature;humidity
9849;DHT22;4963;51.444;6.528;2023-03-04T00:01:21;5.30;99.90
9849;DHT22;4963;51.444;6.528;2023-03-04T00:03:48;5.40;99.90
9849;DHT22;4963;51.444;6.528;2023-03-04T00:06:15;5.40;99.90
9849;DHT22;4963;51.444;6.528;2023-03-04T00:08:42;5.30;99.90
9849;DHT22;4963;51.444;6.528;2023-03-04T00:11:08;5.40;99.90
9849;DHT22;4963;51.444;6.528;2023-03-04T00:13:35;5.30;99.90
9849;DHT22;4963;51.444;6.528;2023-03-04T00:16:04;5.40;99.90
9849;DHT22;4963;51.444;6.528;2023-03-04T00:18:31;5.30;99.90
9849;DHT22;4963;51.444;6.528;2023-03-04T00:20:57;5.30;99.90
9849;DHT22;4963;51.444;6.528;2023-03-04T00:23:24;5.30;99.90
9849;DHT22;4963;51.444;6.528;2023-03-04T00:25:51;5.40;99.90
9849;DHT22;4963;51.444;6.528;2023-03-04T00:28:18;5.30;99.90
9849;DHT22;4963;51.444;6.528;2023-03-04T00:30:45;5.30;99.90
9849;DHT22;4963;51.444;6.528;2023-03-04T00:33:13;5.30;99.90
9849;DHT22;4963;51.444;6.528;2023-03-04T00:35:39;5.20;99.90
9849;DHT22;4963;51.444;6.528;2023-03-04T00:38:06;5.30;99.90
9849;DHT22;4963;51.444;6.528;2023-03-04T00:40:33;5.30;99.90
9849;DHT22;4963;51.444;6.528;2023-03-04T00:43:00;5.20;99.90
9849;DHT22;4963;51.444;6.528;2023-03-04T00:45:27;5.20;99.90
9849;DHT22;4963;51.444;6.528;2023-03-04T00:47:53;5.20;99.90
9849;DHT22;4963;51.444;6.528;2023-03-04T00:50:21;5.20;99.90
9849;DHT22;4963;51.444;6.528;2023-03-04T00:52:48;5.20;99.90
9849;DHT22;4963;51.444;6.528;2023-03-04T00:55:15;5.20;99.90
9849;DHT22;4963;51.444;6.528;2023-03-04T00:57:42;5.10;99.90
9849;DHT22;4963;51.444;6.528;2023-03-04T01:00:10;5.30;99.90
9849;DHT22;4963;51.444;6.528;2023-03-04T01:02:37;5.30;99.90
9849;DHT22;4963;51.444;6.528;2023-03-04T01:05:04;5.30;99.90
9849;DHT22;4963;51.444;6.528;2023-03-04T01:07:32;5.40;99.90
9849;DHT22;4963;51.444;6.528;2023-03-04T01:09:59;5.30;99.90
9849;DHT22;4963;51.444;6.528;2023-03-04T01:12:26;5.30;99.90
9849;DHT22;4963;51.444;6.528;2023-03-04T01:14:53;5.30;99.90
9849;DHT22;4963;51.444;6.528;2023-03-04T01:17:20;5.30;99.90
9849;DHT22;4963;51.444;6.528;2023-03-04T01:19:47;5.20;99.90
9849;DHT22;4963;51.444;6.528;2023-03-04T01:22:14;5.30;99.90
9849;DHT22;4963;51.444;6.528;2023-03-04T01:24:44;5.20;99.90
9849;DHT22;4963;51.444;6.528;2023-03-04T01:27:11;5.20;99.90
9849;DHT22;4963;51.444;6.528;2023-03-04T01:29:38;5.30;99.90
9849;DHT22;4963;51.444;6.528;2023-03-04T01:32:05;5.40;99.90
9849;DHT22;4963;51.444;6.528;2023-03-04T01:34:32;5.20;99.90
9849;DHT22;4963;51.444;6.528;2023-03-04T01:36:59;5.30;99.90
9849;DHT22;4963;51.444;6.528;2023-03-04T01:39:25;5.30;99.90
9849;DHT22;4963;51.444;6.528;2023-03-04T01:41:54;5.20;99.90
9849;DHT22;4963;51.444;6.528;2023-03-04T01:44:21;5.30;99.90
9849;DHT22;4963;51.444;6.528;2023-03-04T01:46:51;5.20;99.90
9849;DHT22;4963;51.444;6.528;2023-03-04T01:49:18;5.30;99.90
9849;DHT22;4963;51.444;6.528;2023-03-04T01:51:47;5.20;99.90
9849;DHT22;4963;51.444;6.528;2023-03-04T01:54:15;5.30;99.90
9849;DHT22;4963;51.444;6.528;2023-03-04T01:56:44;5.30;99.90
9849;DHT22;4963;51.444;6.528;2023-03-04T01:59:14;5.30;99.90
9849;DHT22;4963;51.444;6.528;2023-03-04T02:01:43;5.30;99.90
9849;DHT22;4963;51.444;6.528;2023-03-04T02:04:11;5.20;99.90
9849;DHT22;4963;51.444;6.528;2023-03-04T02:06:39;5.60;99.90
9849;DHT22;4963;51.444;6.528;2023-03-04T02:09:06;5.30;99.90
9849;DHT22;4963;51.444;6.528;2023-03-04T02:11:34;5.30;99.90
9849;DHT22;4963;51.444;6.528;2023-03-04T02:14:01;5.20;99.90
9849;DHT22;4963;51.444;6.528;2023-03-04T02:16:30;5.30;99.90
9849;DHT22;4963;51.444;6.528;2023-03-04T02:18:57;5.20;99.90
9849;DHT22;4963;51.444;6.528;2023-03-04T02:21:25;5.20;99.90
9849;DHT22;4963;51.444;6.528;2023-03-04T02:24:01;5.20;99.90
9849;DHT22;4963;51.444;6.528;2023-03-04T02:26:32;5.20;99.90
9849;DHT22;4963;51.444;6.528;2023-03-04T02:29:00;5.10;99.90
9849;DHT22;4963;51.444;6.528;2023-03-04T02:31:30;5.20;99.90
9849;DHT22;4963;51.444;6.528;2023-03-04T02:33:59;5.20;99.90
9849;DHT22;4963;51.444;6.528;2023-03-04T02:36:27;5.20;99.90
9849;DHT22;4963;51.444;6.528;2023-03-04T02:38:54;5.20;99.90
9849;DHT22;4963;51.444;6.528;2023-03-04T02:41:23;5.30;99.90
9849;DHT22;4963;51.444;6.528;2023-03-04T02:43:54;5.20;99.90
9849;DHT22;4963;51.444;6.528;2023-03-04T02:46:21;5.20;99.90
9849;DHT22;4963;51.444;6.528;2023-03-04T02:48:48;5.20;99.90
9849;DHT22;4963;51.444;6.528;2023-03-04T02:51:16;5.20;99.90
9849;DHT22;4963;51.444;6.528;2023-03-04T02:53:42;5.10;99.90
9849;DHT22;4963;51.444;6.528;2023-03-04T02:56:09;5.20;99.90
9849;DHT22;4963;51.444;6.528;2023-03-04T02:58:36;5.20;99.90
9849;DHT22;4963;51.444;6.528;2023-03-04T03:01:06;5.20;99.90
9849;DHT22;4963;51.444;6.528;2023-03-04T03:03:32;5.20;99.90
9849;DHT22;4963;51.444;6.528;2023-03-04T03:05:59;5.20;99.90
9849;DHT22;4963;51.444;6.528;2023-03-04T03:08:26;5.20;99.90
9849;DHT22;4963;51.444;6.528;2023-03-04T03:10:53;5.20;99.90
9849;DHT22;4963;51.444;6.528;2023-03-04T03:13:19;5.10;99.90
9849;DHT22;4963;51.444;6.528;2023-03-04T03:15:46;5.10;99.90
9849;DHT22;4963;51.444;6.528;2023-03-04T03:18:14;5.10;99.90
9849;DHT22;4963;51.444;6.528;2023-03-04T03:20:41;5.10;99.90
9849;DHT22;4963;51.444;6.528;2023-03-04T03:23:08;5.10;99.90
9849;DHT22;4963;51.444;6.528;2023-03-04T03:25:35;5.10;99.90
9849;DHT22;4963;51.444;6.528;2023-03-04T03:28:01;5.10;99.90
9849;DHT22;4963;51.444;6.528;2023-03-04T03:30:28;5.20;99.90
9849;DHT22;4963;51.444;6.528;2023-03-04T03:32:55;5.10;99.90
9849;DHT22;4963;51.444;6.528;2023-03-04T03:35:23;5.10;99.90
9849;DHT22;4963;51.444;6.528;2023-03-04T03:37:51;5.20;99.90
9849;DHT22;4963;51.444;6.528;2023-03-04T03:40:18;5.20;99.90
9849;DHT22;4963;51.444;6.528;2023-03-04T03:42:45;5.20;99.90
9849;DHT22;4963;51.444;6.528;2023-03-04T03:45:12;5.20;99.90
9849;DHT22;4963;51.444;6.528;2023-03-04T03:47:38;5.20;99.90
9849;DHT22;4963;51.444;6.528;2023-03-04T03:50:06;5.10;99.90
9849;DHT22;4963;51.444;6.528;2023-03-04T03:52:34;5.10;99.90
9849;DHT22;4963;51.444;6.528;2023-03-04T03:55:01;5.20;99.90
9849;DHT22;4963;51.444;6.528;2023-03-04T03:57:28;5.10;99.90
9849;DHT22;4963;51.444;6.528;2023-03-04T03:59:55;5.10;99.90
9849;DHT22;4963;51.444;6.528;2023-03-04T04:02:22;5.70;99.90
9849;DHT22;4963;51.444;6.528;2023-03-04T04:04:49;5.20;99.90
9849;DHT22;4963;51.444;6.528;2023-03-04T04:07:16;5.20;99.90
9849;DHT22;4963;51.444;6.528;2023-03-04T04:09:44;5.20;99.90
9849;DHT22;4963;51.444;6.528;2023-03-04T04:12:13;5.10;99.90
9849;DHT22;4963;51.444;6.528;2023-03-04T04:14:41;5.30;99.90
9849;DHT22;4963;51.444;6.528;2023-03-04T04:17:08;5.20;99.90
9849;DHT22;4963;51.444;6.528;2023-03-04T04:19:35;5.20;99.90
9849;DHT22;4963;51.444;6.528;2023-03-04T04:22:02;5.10;99.90
9849;DHT22;4963;51.444;6.528;2023-03-04T04:24:29;5.10;99.90
9849;DHT22;4963;51.444;6.528;2023-03-04T04:26:57;5.10;99.90
9849;DHT22;4963;51.444;6.528;2023-03-04T04:29:24;5.10;99.90
9849;DHT22;4963;51.444;6.528;2023-03-04T04:31:51;5.10;99.90
9849;DHT22;4963;51.444;6.528;2023-03-04T04:34:18;5.10;99.90
9849;DHT22;4963;51.444;6.528;2023-03-04T04:36:44;5.10;99.90
9849;DHT22;4963;51.444;6.528;2023-03-04T04:39:11;5.10;99.90
9849;DHT22;4963;51.444;6.528;2023-03-04T04:41:40;5.10;99.90
9849;DHT22;4963;51.444;6.528;2023-03-04T04:44:09;5.20;99.90
9849;DHT22;4963;51.444;6.528;2023-03-04T04:46:36;5.20;99.90
9849;DHT22;4963;51.444;6.528;2023-03-04T04:49:03;5.20;99.90
9849;DHT22;4963;51.444;6.528;2023-03-04T04:51:31;5.10;99.90
9849;DHT22;4963;51.444;6.528;2023-03-04T04:53:58;5.30;99.90
9849;DHT22;4963;51.444;6.528;2023-03-04T04:56:25;5.10;99.90
9849;DHT22;4963;51.444;6.528;2023-03-04T04:58:53;5.10;99.90
9849;DHT22;4963;51.444;6.528;2023-03-04T05:01:23;5.10;99.90
9849;DHT22;4963;51.444;6.528;2023-03-04T05:03:50;5.10;99.90
9849;DHT22;4963;51.444;6.528;2023-03-04T05:06:18;5.10;99.90
9849;DHT22;4963;51.444;6.528;2023-03-04T05:08:45;5.10;99.90
9849;DHT22;4963;51.444;6.528;2023-03-04T05:11:12;5.10;99.90
9849;DHT22;4963;51.444;6.528;2023-03-04T05:13:38;5.10;99.90
9849;DHT22;4963;51.444;6.528;2023-03-04T05:16:06;5.10;99.90
9849;DHT22;4963;51.444;6.528;2023-03-04T05:18:35;5.00;99.90
9849;DHT22;4963;51.444;6.528;2023-03-04T05:21:03;5.00;99.90
9849;DHT22;4963;51.444;6.528;2023-03-04T05:23:32;5.10;99.90
9849;DHT22;4963;51.444;6.528;2023-03-04T05:25:59;5.10;99.90
9849;DHT22;4963;51.444;6.528;2023-03-04T05:28:26;5.10;99.90
9849;DHT22;4963;51.444;6.528;2023-03-04T05:30:53;5.20;99.90
9849;DHT22;4963;51.444;6.528;2023-03-04T05:33:20;5.00;99.90
9849;DHT22;4963;51.444;6.528;2023-03-04T05:35:48;5.10;99.90
9849;DHT22;4963;51.444;6.528;2023-03-04T05:38:17;5.00;99.90
9849;DHT22;4963;51.444;6.528;2023-03-04T05:40:45;5.10;99.90
9849;DHT22;4963;51.444;6.528;2023-03-04T05:43:12;5.20;99.90
9849;DHT22;4963;51.444;6.528;2023-03-04T05:45:40;5.10;99.90
9849;DHT22;4963;51.444;6.528;2023-03-04T05:48:07;5.00;99.90
9849;DHT22;4963;51.444;6.528;2023-03-04T05:50:34;5.10;99.90
9849;DHT22;4963;51.444;6.528;2023-03-04T05:53:03;5.10;99.90
9849;DHT22;4963;51.444;6.528;2023-03-04T05:55:29;5.10;99.90
9849;DHT22;4963;51.444;6.528;2023-03-04T05:57:56;5.10;99.90
9849;DHT22;4963;51.444;6.528;2023-03-04T06:00:23;5.10;99.90
9849;DHT22;4963;51.444;6.528;2023-03-04T06:02:50;5.10;99.90
9849;DHT22;4963;51.444;6.528;2023-03-04T06:05:18;5.10;99.90
9849;DHT22;4963;51.444;6.528;2023-03-04T06:07:45;5.10;99.90
9849;DHT22;4963;51.444;6.528;2023-03-04T06:12:42;5.10;99.90
9849;DHT22;4963;51.444;6.528;2023-03-04T06:15:10;5.20;99.90
9849;DHT22;4963;51.444;6.528;2023-03-04T06:17:38;5.20;99.90
9849;DHT22;4963;51.444;6.528;2023-03-04T06:20:06;5.20;99.90
9849;DHT22;4963;51.444;6.528;2023-03-04T06:22:33;5.10;99.90
9849;DHT22;4963;51.444;6.528;2023-03-04T06:25:00;5.20;99.90
9849;DHT22;4963;51.444;6.528;2023-03-04T06:27:29;5.10;99.90
9849;DHT22;4963;51.444;6.528;2023-03-04T06:29:55;5.20;99.90
9849;DHT22;4963;51.444;6.528;2023-03-04T06:32:22;5.10;99.90
9849;DHT22;4963;51.444;6.528;2023-03-04T06:34:49;5.20;99.90
9849;DHT22;4963;51.444;6.528;2023-03-04T06:37:16;5.30;99.90
9849;DHT22;4963;51.444;6.528;2023-03-04T06:39:43;5.30;99.90
9849;DHT22;4963;51.444;6.528;2023-03-04T06:42:10;5.20;99.90
9849;DHT22;4963;51.444;6.528;2023-03-04T06:44:38;5.30;99.90
9849;DHT22;4963;51.444;6.528;2023-03-04T06:47:05;5.30;99.90
9849;DHT22;4963;51.444;6.528;2023-03-04T06:49:31;5.20;99.90
9849;DHT22;4963;51.444;6.528;2023-03-04T06:51:58;5.30;99.90
9849;DHT22;4963;51.444;6.528;2023-03-04T06:54:25;5.20;99.90
9849;DHT22;4963;51.444;6.528;2023-03-04T06:56:52;5.20;99.90
9849;DHT22;4963;51.444;6.528;2023-03-04T06:59:19;5.20;99.90
9849;DHT22;4963;51.444;6.528;2023-03-04T07:01:47;5.10;99.90
9849;DHT22;4963;51.444;6.528;2023-03-04T07:04:14;5.20;99.90
9849;DHT22;4963;51.444;6.528;2023-03-04T07:06:41;5.20;99.90
9849;DHT22;4963;51.444;6.528;2023-03-04T07:09:07;5.10;99.90
9849;DHT22;4963;51.444;6.528;2023-03-04T07:11:34;5.20;99.90
9849;DHT22;4963;51.444;6.528;2023-03-04T07:14:01;5.20;99.90
9849;DHT22;4963;51.444;6.528;2023-03-04T07:16:28;5.20;99.90
9849;DHT22;4963;51.444;6.528;2023-03-04T07:18:56;5.20;99.90
9849;DHT22;4963;51.444;6.528;2023-03-04T07:21:23;5.20;99.90
9849;DHT22;4963;51.444;6.528;2023-03-04T07:23:49;5.20;99.90
9849;DHT22;4963;51.444;6.528;2023-03-04T07:26:16;5.30;99.90
9849;DHT22;4963;51.444;6.528;2023-03-04T07:28:43;5.30;99.90
9849;DHT22;4963;51.444;6.528;2023-03-04T07:31:12;5.40;99.90
9849;DHT22;4963;51.444;6.528;2023-03-04T07:33:41;5.30;99.90
9849;DHT22;4963;51.444;6.528;2023-03-04T07:36:09;5.40;99.90
9849;DHT22;4963;51.444;6.528;2023-03-04T07:38:42;5.30;99.90
9849;DHT22;4963;51.444;6.528;2023-03-04T07:41:09;5.40;99.90
9849;DHT22;4963;51.444;6.528;2023-03-04T07:43:35;5.30;99.90
9849;DHT22;4963;51.444;6.528;2023-03-04T07:46:02;5.40;99.90
9849;DHT22;4963;51.444;6.528;2023-03-04T07:48:29;5.40;99.90
9849;DHT22;4963;51.444;6.528;2023-03-04T07:51:09;5.40;99.90
9849;DHT22;4963;51.444;6.528;2023-03-04T07:53:37;5.50;99.90
9849;DHT22;4963;51.444;6.528;2023-03-04T07:56:06;5.60;99.90
9849;DHT22;4963;51.444;6.528;2023-03-04T07:58:33;5.50;99.90
9849;DHT22;4963;51.444;6.528;2023-03-04T08:01:00;5.60;99.90
9849;DHT22;4963;51.444;6.528;2023-03-04T08:03:27;5.60;99.90
9849;DHT22;4963;51.444;6.528;2023-03-04T08:05:55;5.90;99.90
9849;DHT22;4963;51.444;6.528;2023-03-04T08:08:23;5.80;99.90
9849;DHT22;4963;51.444;6.528;2023-03-04T08:10:49;6.00;99.90
9849;DHT22;4963;51.444;6.528;2023-03-04T08:13:16;5.90;99.90
9849;DHT22;4963;51.444;6.528;2023-03-04T08:15:43;5.90;99.90
9849;DHT22;4963;51.444;6.528;2023-03-04T08:18:10;6.00;99.90
9849;DHT22;4963;51.444;6.528;2023-03-04T08:20:40;6.00;99.90
9849;DHT22;4963;51.444;6.528;2023-03-04T08:23:07;6.00;99.90
9849;DHT22;4963;51.444;6.528;2023-03-04T08:25:37;6.10;99.90
9849;DHT22;4963;51.444;6.528;2023-03-04T08:28:04;6.30;99.90
9849;DHT22;4963;51.444;6.528;2023-03-04T08:30:31;6.50;99.90
9849;DHT22;4963;51.444;6.528;2023-03-04T08:32:58;6.60;99.90
9849;DHT22;4963;51.444;6.528;2023-03-04T08:35:24;6.90;99.90
9849;DHT22;4963;51.444;6.528;2023-03-04T08:37:51;7.00;99.90
9849;DHT22;4963;51.444;6.528;2023-03-04T08:40:18;7.00;99.90
9849;DHT22;4963;51.444;6.528;2023-03-04T08:42:46;7.10;99.90
9849;DHT22;4963;51.444;6.528;2023-03-04T08:45:13;7.10;99.90
9849;DHT22;4963;51.444;6.528;2023-03-04T08:47:40;7.20;99.90
9849;DHT22;4963;51.444;6.528;2023-03-04T08:50:08;7.30;99.90
9849;DHT22;4963;51.444;6.528;2023-03-04T08:52:35;7.30;99.90
9849;DHT22;4963;51.444;6.528;2023-03-04T08:55:02;7.30;99.90
9849;DHT22;4963;51.444;6.528;2023-03-04T08:57:29;7.30;99.90
9849;DHT22;4963;51.444;6.528;2023-03-04T08:59:57;7.30;99.90
9849;DHT22;4963;51.444;6.528;2023-03-04T09:02:24;7.30;99.90
9849;DHT22;4963;51.444;6.528;2023-03-04T09:04:51;7.30;99.90
9849;DHT22;4963;51.444;6.528;2023-03-04T09:07:18;7.20;99.90
9849;DHT22;4963;51.444;6.528;2023-03-04T09:09:45;7.20;99.90
9849;DHT22;4963;51.444;6.528;2023-03-04T09:12:11;7.20;99.90
9849;DHT22;4963;51.444;6.528;2023-03-04T09:14:38;7.30;99.90
9849;DHT22;4963;51.444;6.528;2023-03-04T09:17:06;7.30;99.90
9849;DHT22;4963;51.444;6.528;2023-03-04T09:19:34;7.20;99.90
9849;DHT22;4963;51.444;6.528;2023-03-04T09:22:01;7.30;99.90
9849;DHT22;4963;51.444;6.528;2023-03-04T09:24:28;7.30;99.90
9849;DHT22;4963;51.444;6.528;2023-03-04T09:26:54;7.30;99.90
9849;DHT22;4963;51.444;6.528;2023-03-04T09:29:21;7.40;99.90
9849;DHT22;4963;51.444;6.528;2023-03-04T09:31:49;7.40;99.90
9849;DHT22;4963;51.444;6.528;2023-03-04T09:34:17;7.40;99.90
9849;DHT22;4963;51.444;6.528;2023-03-04T09:36:44;7.50;99.90
9849;DHT22;4963;51.444;6.528;2023-03-04T09:39:11;7.60;99.90
9849;DHT22;4963;51.444;6.528;2023-03-04T09:41:39;7.70;99.90
9849;DHT22;4963;51.444;6.528;2023-03-04T09:44:15;7.80;99.90
9849;DHT22;4963;51.444;6.528;2023-03-04T09:46:47;7.80;99.90
9849;DHT22;4963;51.444;6.528;2023-03-04T09:49:14;7.80;99.90
9849;DHT22;4963;51.444;6.528;2023-03-04T09:51:56;7.80;99.90
9849;DHT22;4963;51.444;6.528;2023-03-04T09:54:49;7.90;99.90
9849;DHT22;4963;51.444;6.528;2023-03-04T09:57:26;8.00;99.90
9849;DHT22;4963;51.444;6.528;2023-03-04T10:00:04;7.90;99.90
9849;DHT22;4963;51.444;6.528;2023-03-04T10:02:42;7.90;99.90
9849;DHT22;4963;51.444;6.528;2023-03-04T10:05:12;7.80;99.90
9849;DHT22;4963;51.444;6.528;2023-03-04T10:07:42;7.70;99.90
9849;DHT22;4963;51.444;6.528;2023-03-04T10:10:14;7.40;99.90
9849;DHT22;4963;51.444;6.528;2023-03-04T10:12:45;7.70;99.90
9849;DHT22;4963;51.444;6.528;2023-03-04T10:15:22;7.60;99.90
9849;DHT22;4963;51.444;6.528;2023-03-04T10:17:56;7.70;99.90
9849;DHT22;4963;51.444;6.528;2023-03-04T10:20:30;7.70;99.90
9849;DHT22;4963;51.444;6.528;2023-03-04T10:23:07;7.70;99.90
9849;DHT22;4963;51.444;6.528;2023-03-04T10:25:39;7.70;99.90
9849;DHT22;4963;51.444;6.528;2023-03-04T10:28:14;7.70;99.90
9849;DHT22;4963;51.444;6.528;2023-03-04T10:30:47;7.80;99.90
9849;DHT22;4963;51.444;6.528;2023-03-04T10:33:17;7.90;99.90
9849;DHT22;4963;51.444;6.528;2023-03-04T10:35:47;7.90;99.90
9849;DHT22;4963;51.444;6.528;2023-03-04T10:38:19;7.90;99.90
9849;DHT22;4963;51.444;6.528;2023-03-04T10:40:46;8.00;99.90
9849;DHT22;4963;51.444;6.528;2023-03-04T10:43:15;8.20;99.90
9849;DHT22;4963;51.444;6.528;2023-03-04T10:45:42;8.20;99.90
9849;DHT22;4963;51.444;6.528;2023-03-04T10:48:18;8.30;99.90
9849;DHT22;4963;51.444;6.528;2023-03-04T10:50:45;8.20;99.90
9849;DHT22;4963;51.444;6.528;2023-03-04T10:53:30;8.10;99.90
9849;DHT22;4963;51.444;6.528;2023-03-04T10:55:58;8.00;99.90
9849;DHT22;4963;51.444;6.528;2023-03-04T10:58:27;8.00;99.90
9849;DHT22;4963;51.444;6.528;2023-03-04T11:01:00;8.00;99.90
9849;DHT22;4963;51.444;6.528;2023-03-04T11:03:32;8.00;99.90
9849;DHT22;4963;51.444;6.528;2023-03-04T11:08:54;8.20;99.90
9849;DHT22;4963;51.444;6.528;2023-03-04T11:11:23;8.30;99.90
9849;DHT22;4963;51.444;6.528;2023-03-04T11:13:52;8.30;99.90
9849;DHT22;4963;51.444;6.528;2023-03-04T11:16:25;8.30;99.90
9849;DHT22;4963;51.444;6.528;2023-03-04T11:18:53;8.30;99.90
9849;DHT22;4963;51.444;6.528;2023-03-04T11:21:22;8.30;99.90
9849;DHT22;4963;51.444;6.528;2023-03-04T11:23:53;8.20;99.90
9849;DHT22;4963;51.444;6.528;2023-03-04T11:26:25;8.20;99.90
9849;DHT22;4963;51.444;6.528;2023-03-04T11:28:57;8.10;99.90
9849;DHT22;4963;51.444;6.528;2023-03-04T11:31:29;8.10;99.90
9849;DHT22;4963;51.444;6.528;2023-03-04T11:34:00;8.20;99.90
9849;DHT22;4963;51.444;6.528;2023-03-04T11:36:32;8.10;99.90
9849;DHT22;4963;51.444;6.528;2023-03-04T11:39:03;8.10;99.90
9849;DHT22;4963;51.444;6.528;2023-03-04T11:41:33;8.10;99.90
9849;DHT22;4963;51.444;6.528;2023-03-04T11:44:02;8.00;99.90
9849;DHT22;4963;51.444;6.528;2023-03-04T11:46:51;8.10;99.90
9849;DHT22;4963;51.444;6.528;2023-03-04T11:49:55;8.10;99.90
9849;DHT22;4963;51.444;6.528;2023-03-04T11:52:37;8.20;99.90
9849;DHT22;4963;51.444;6.528;2023-03-04T11:55:21;8.30;99.90
9849;DHT22;4963;51.444;6.528;2023-03-04T11:57:58;8.30;99.90
9849;DHT22;4963;51.444;6.528;2023-03-04T12:00:37;8.30;99.90
9849;DHT22;4963;51.444;6.528;2023-03-04T12:03:26;8.30;99.90
9849;DHT22;4963;51.444;6.528;2023-03-04T12:06:04;8.40;99.90
9849;DHT22;4963;51.444;6.528;2023-03-04T12:08:47;8.40;99.90
9849;DHT22;4963;51.444;6.528;2023-03-04T12:11:22;8.30;99.90
9849;DHT22;4963;51.444;6.528;2023-03-04T12:14:05;8.30;99.90
9849;DHT22;4963;51.444;6.528;2023-03-04T12:16:47;8.40;99.90
9849;DHT22;4963;51.444;6.528;2023-03-04T12:19:26;8.40;99.90
9849;DHT22;4963;51.444;6.528;2023-03-04T12:22:02;8.40;99.90
9849;DHT22;4963;51.444;6.528;2023-03-04T12:27:37;8.40;99.90
9849;DHT22;4963;51.444;6.528;2023-03-04T12:30:16;8.40;99.90
9849;DHT22;4963;51.444;6.528;2023-03-04T12:32:51;8.30;99.90
9849;DHT22;4963;51.444;6.528;2023-03-04T12:35:34;8.30;99.90
9849;DHT22;4963;51.444;6.528;2023-03-04T12:38:15;8.30;99.90
9849;DHT22;4963;51.444;6.528;2023-03-04T12:40:49;8.30;99.90
9849;DHT22;4963;51.444;6.528;2023-03-04T12:43:31;8.10;99.90
9849;DHT22;4963;51.444;6.528;2023-03-04T12:46:06;8.00;99.90
9849;DHT22;4963;51.444;6.528;2023-03-04T12:48:39;7.90;99.90
9849;DHT22;4963;51.444;6.528;2023-03-04T12:51:16;8.00;99.90
9849;DHT22;4963;51.444;6.528;2023-03-04T12:53:52;8.00;99.90
9849;DHT22;4963;51.444;6.528;2023-03-04T12:56:25;7.90;99.90
9849;DHT22;4963;51.444;6.528;2023-03-04T12:58:54;7.90;99.90
9849;DHT22;4963;51.444;6.528;2023-03-04T13:01:24;7.90;99.90
9849;DHT22;4963;51.444;6.528;2023-03-04T13:03:57;7.90;99.90
9849;DHT22;4963;51.444;6.528;2023-03-04T13:06:30;7.80;99.90
9849;DHT22;4963;51.444;6.528;2023-03-04T13:09:04;7.90;99.90
9849;DHT22;4963;51.444;6.528;2023-03-04T13:11:44;7.80;99.90
9849;DHT22;4963;51.444;6.528;2023-03-04T13:14:25;8.00;99.90
9849;DHT22;4963;51.444;6.528;2023-03-04T13:16:54;8.00;99.90
9849;DHT22;4963;51.444;6.528;2023-03-04T13:19:44;8.00;99.90
9849;DHT22;4963;51.444;6.528;2023-03-04T13:22:40;8.00;99.90
9849;DHT22;4963;51.444;6.528;2023-03-04T13:25:28;8.00;99.90
9849;DHT22;4963;51.444;6.528;2023-03-04T13:28:23;8.00;99.90
9849;DHT22;4963;51.444;6.528;2023-03-04T13:31:21;7.90;99.90
9849;DHT22;4963;51.444;6.528;2023-03-04T13:34:00;8.00;99.90
9849;DHT22;4963;51.444;6.528;2023-03-04T13:39:31;7.90;99.90
9849;DHT22;4963;51.444;6.528;2023-03-04T13:41:59;7.90;99.90
9849;DHT22;4963;51.444;6.528;2023-03-04T13:44:59;8.00;99.90
9849;DHT22;4963;51.444;6.528;2023-03-04T13:47:38;7.90;99.90
9849;DHT22;4963;51.444;6.528;2023-03-04T13:50:37;8.00;99.90
9849;DHT22;4963;51.444;6.528;2023-03-04T13:53:39;7.90;99.90
9849;DHT22;4963;51.444;6.528;2023-03-04T13:56:27;7.90;99.90
9849;DHT22;4963;51.444;6.528;2023-03-04T13:59:26;7.90;99.90
9849;DHT22;4963;51.444;6.528;2023-03-04T14:01:57;8.00;99.90
9849;DHT22;4963;51.444;6.528;2023-03-04T14:04:35;8.00;99.90
9849;DHT22;4963;51.444;6.528;2023-03-04T14:07:17;8.10;99.90
9849;DHT22;4963;51.444;6.528;2023-03-04T14:09:54;8.20;99.90
9849;DHT22;4963;51.444;6.528;2023-03-04T14:12:21;8.20;99.90
9849;DHT22;4963;51.444;6.528;2023-03-04T14:14:50;8.30;99.90
9849;DHT22;4963;51.444;6.528;2023-03-04T14:17:20;8.30;99.90
9849;DHT22;4963;51.444;6.528;2023-03-04T14:19:49;8.30;99.90
9849;DHT22;4963;51.444;6.528;2023-03-04T14:22:28;8.40;99.90
9849;DHT22;4963;51.444;6.528;2023-03-04T14:25:00;8.30;99.90
9849;DHT22;4963;51.444;6.528;2023-03-04T14:27:28;8.40;99.90
9849;DHT22;4963;51.444;6.528;2023-03-04T14:29:56;8.30;99.90
9849;DHT22;4963;51.444;6.528;2023-03-04T14:32:24;8.40;99.90
9849;DHT22;4963;51.444;6.528;2023-03-04T14:34:55;8.40;99.90
9849;DHT22;4963;51.444;6.528;2023-03-04T14:37:25;8.40;99.90
9849;DHT22;4963;51.444;6.528;2023-03-04T14:39:55;8.40;99.90
9849;DHT22;4963;51.444;6.528;2023-03-04T14:42:25;8.30;99.90
9849;DHT22;4963;51.444;6.528;2023-03-04T14:44:56;8.30;99.90
9849;DHT22;4963;51.444;6.528;2023-03-04T14:47:32;8.20;99.90
9849;DHT22;4963;51.444;6.528;2023-03-04T14:50:03;8.10;99.90
9849;DHT22;4963;51.444;6.528;2023-03-04T14:52:33;8.10;99.90
9849;DHT22;4963;51.444;6.528;2023-03-04T14:55:07;8.00;99.90
9849;DHT22;4963;51.444;6.528;2023-03-04T14:57:35;7.90;99.90
9849;DHT22;4963;51.444;6.528;2023-03-04T15:00:16;7.90;99.90
9849;DHT22;4963;51.444;6.528;2023-03-04T15:02:49;7.90;99.90
9849;DHT22;4963;51.444;6.528;2023-03-04T15:05:20;7.90;99.90
9849;DHT22;4963;51.444;6.528;2023-03-04T15:07:50;7.90;99.90
9849;DHT22;4963;51.444;6.528;2023-03-04T15:10:21;7.80;99.90
9849;DHT22;4963;51.444;6.528;2023-03-04T15:12:53;7.80;99.90
9849;DHT22;4963;51.444;6.528;2023-03-04T15:15:33;7.80;99.90
9849;DHT22;4963;51.444;6.528;2023-03-04T15:18:02;7.80;99.90
9849;DHT22;4963;51.444;6.528;2023-03-04T15:20:31;7.80;99.90
9849;DHT22;4963;51.444;6.528;2023-03-04T15:23:03;7.80;99.90
9849;DHT22;4963;51.444;6.528;2023-03-04T15:25:32;7.80;99.90
9849;DHT22;4963;51.444;6.528;2023-03-04T15:28:00;7.80;99.90
9849;DHT22;4963;51.444;6.528;2023-03-04T15:30:29;7.70;99.90
9849;DHT22;4963;51.444;6.528;2023-03-04T15:32:57;7.80;99.90
9849;DHT22;4963;51.444;6.528;2023-03-04T15:35:27;7.70;99.90
9849;DHT22;4963;51.444;6.528;2023-03-04T15:37:56;7.80;99.90
9849;DHT22;4963;51.444;6.528;2023-03-04T15:40:26;7.70;99.90
9849;DHT22;4963;51.444;6.528;2023-03-04T15:42:56;7.70;99.90
9849;DHT22;4963;51.444;6.528;2023-03-04T15:45:25;7.70;99.90
9849;DHT22;4963;51.444;6.528;2023-03-04T15:47:52;7.60;99.90
9849;DHT22;4963;51.444;6.528;2023-03-04T15:50:19;7.60;99.90
9849;DHT22;4963;51.444;6.528;2023-03-04T15:52:47;7.50;99.90
9849;DHT22;4963;51.444;6.528;2023-03-04T15:55:16;7.50;99.90
9849;DHT22;4963;51.444;6.528;2023-03-04T15:57:45;7.40;99.90
9849;DHT22;4963;51.444;6.528;2023-03-04T16:00:13;7.40;99.90
9849;DHT22;4963;51.444;6.528;2023-03-04T16:02:41;7.40;99.90
9849;DHT22;4963;51.444;6.528;2023-03-04T16:05:08;7.30;99.90
9849;DHT22;4963;51.444;6.528;2023-03-04T16:07:36;7.40;99.90
9849;DHT22;4963;51.444;6.528;2023-03-04T16:10:08;7.40;99.90
9849;DHT22;4963;51.444;6.528;2023-03-04T16:12:39;7.40;99.90
9849;DHT22;4963;51.444;6.528;2023-03-04T16:15:12;7.30;99.90
9849;DHT22;4963;51.444;6.528;2023-03-04T16:17:38;7.40;99.90
9849;DHT22;4963;51.444;6.528;2023-03-04T16:20:10;7.40;99.90
9849;DHT22;4963;51.444;6.528;2023-03-04T16:22:37;7.30;99.90
9849;DHT22;4963;51.444;6.528;2023-03-04T16:25:04;7.40;99.90
9849;DHT22;4963;51.444;6.528;2023-03-04T16:27:31;7.40;99.90
9849;DHT22;4963;51.444;6.528;2023-03-04T16:29:59;7.20;99.90
9849;DHT22;4963;51.444;6.528;2023-03-04T16:32:26;7.40;99.90
9849;DHT22;4963;51.444;6.528;2023-03-04T16:34:53;7.50;99.90
9849;DHT22;4963;51.444;6.528;2023-03-04T16:37:20;7.50;99.90
9849;DHT22;4963;51.444;6.528;2023-03-04T16:39:47;7.40;99.90
9849;DHT22;4963;51.444;6.528;2023-03-04T16:42:15;7.40;99.90
9849;DHT22;4963;51.444;6.528;2023-03-04T16:44:43;7.40;99.90
9849;DHT22;4963;51.444;6.528;2023-03-04T16:47:11;7.40;99.90